sensor_id;sensor_type;location;lat;lon;timestamp;temperature;humidity
77592;DHT22;66891;46.884;17.436;2023-04-24T00:02:23;14.53;60.95
77592;DHT22;66891;46.884;17.436;2023-04-24T00:04:51;14.64;59.81
77592;DHT22;66891;46.884;17.436;2023-04-24T00:07:18;14.63;60.46
77592;DHT22;66891;46.884;17.436;2023-04-24T00:09:47;14.55;61.45
77592;DHT22;66891;46.884;17.436;2023-04-24T00:12:14;14.57;61.99
77592;DHT22;66891;46.884;17.436;2023-04-24T00:14:41;14.59;61.17
77592;DHT22;66891;46.884;17.436;2023-04-24T00:17:08;14.63;61.19
77592;DHT22;66891;46.884;17.436;2023-04-24T00:19:37;14.66;58.97
77592;DHT22;66891;46.884;17.436;2023-04-24T00:22:04;14.66;59.99
77592;DHT22;66891;46.884;17.436;2023-04-24T00:24:32;14.66;60.64
77592;DHT22;66891;46.884;17.436;2023-04-24T00:26:59;14.66;62.00
77592;DHT22;66891;46.884;17.436;2023-04-24T00:29:28;14.76;62.24
77592;DHT22;66891;46.884;17.436;2023-04-24T00:31:55;14.85;60.58
77592;DHT22;66891;46.884;17.436;2023-04-24T00:34:23;14.73;62.80
77592;DHT22;66891;46.884;17.436;2023-04-24T00:36:51;14.80;61.90
77592;DHT22;66891;46.884;17.436;2023-04-24T00:39:19;14.77;62.21
77592;DHT22;66891;46.884;17.436;2023-04-24T00:41:47;14.71;62.30
77592;DHT22;66891;46.884;17.436;2023-04-24T00:44:15;14.74;61.55
77592;DHT22;66891;46.884;17.436;2023-04-24T00:46:42;14.73;62.47
77592;DHT22;66891;46.884;17.436;2023-04-24T00:49:10;14.61;62.47
77592;DHT22;66891;46.884;17.436;2023-04-24T00:51:37;14.81;62.14
77592;DHT22;66891;46.884;17.436;2023-04-24T00:54:06;14.77;62.61
77592;DHT22;66891;46.884;17.436;2023-04-24T00:56:33;14.89;60.84
77592;DHT22;66891;46.884;17.436;2023-04-24T00:59:01;14.92;62.75
77592;DHT22;66891;46.884;17.436;2023-04-24T01:01:28;14.94;61.95
77592;DHT22;66891;46.884;17.436;2023-04-24T01:03:57;14.91;62.81
77592;DHT22;66891;46.884;17.436;2023-04-24T01:06:28;15.01;61.34
77592;DHT22;66891;46.884;17.436;2023-04-24T01:08:56;15.07;61.61
77592;DHT22;66891;46.884;17.436;2023-04-24T01:11:25;15.12;61.60
77592;DHT22;66891;46.884;17.436;2023-04-24T01:13:52;15.19;61.94
77592;DHT22;66891;46.884;17.436;2023-04-24T01:16:19;15.05;62.92
77592;DHT22;66891;46.884;17.436;2023-04-24T01:18:50;14.95;63.47
77592;DHT22;66891;46.884;17.436;2023-04-24T01:21:20;14.95;64.10
77592;DHT22;66891;46.884;17.436;2023-04-24T01:23:49;14.92;64.11
77592;DHT22;66891;46.884;17.436;2023-04-24T01:26:17;14.98;62.86
77592;DHT22;66891;46.884;17.436;2023-04-24T01:28:48;14.87;62.70
77592;DHT22;66891;46.884;17.436;2023-04-24T01:31:16;14.70;63.04
77592;DHT22;66891;46.884;17.436;2023-04-24T01:33:44;14.81;63.46
77592;DHT22;66891;46.884;17.436;2023-04-24T01:36:11;14.87;63.89
77592;DHT22;66891;46.884;17.436;2023-04-24T01:38:39;14.63;64.15
77592;DHT22;66891;46.884;17.436;2023-04-24T01:41:08;14.61;64.04
77592;DHT22;66891;46.884;17.436;2023-04-24T01:43:35;14.70;64.13
77592;DHT22;66891;46.884;17.436;2023-04-24T01:46:03;14.76;63.94
77592;DHT22;66891;46.884;17.436;2023-04-24T01:48:31;14.61;64.86
77592;DHT22;66891;46.884;17.436;2023-04-24T01:50:59;14.40;66.34
77592;DHT22;66891;46.884;17.436;2023-04-24T01:53:27;14.40;66.10
77592;DHT22;66891;46.884;17.436;2023-04-24T01:55:54;14.28;66.23
77592;DHT22;66891;46.884;17.436;2023-04-24T01:58:23;14.25;66.40
77592;DHT22;66891;46.884;17.436;2023-04-24T02:00:50;14.30;65.92
77592;DHT22;66891;46.884;17.436;2023-04-24T02:03:17;14.25;67.00
77592;DHT22;66891;46.884;17.436;2023-04-24T02:05:45;14.39;65.30
77592;DHT22;66891;46.884;17.436;2023-04-24T02:08:12;14.33;65.01
77592;DHT22;66891;46.884;17.436;2023-04-24T02:10:40;14.57;63.97
77592;DHT22;66891;46.884;17.436;2023-04-24T02:13:07;14.60;63.51
77592;DHT22;66891;46.884;17.436;2023-04-24T02:15:35;14.67;63.23
77592;DHT22;66891;46.884;17.436;2023-04-24T02:18:03;14.70;63.93
77592;DHT22;66891;46.884;17.436;2023-04-24T02:20:31;14.73;63.68
77592;DHT22;66891;46.884;17.436;2023-04-24T02:23:01;14.81;63.50
77592;DHT22;66891;46.884;17.436;2023-04-24T02:25:28;14.87;63.60
77592;DHT22;66891;46.884;17.436;2023-04-24T02:27:55;14.84;63.47
77592;DHT22;66891;46.884;17.436;2023-04-24T02:30:23;14.89;63.81
77592;DHT22;66891;46.884;17.436;2023-04-24T02:32:51;14.88;64.08
77592;DHT22;66891;46.884;17.436;2023-04-24T02:35:19;14.84;64.16
77592;DHT22;66891;46.884;17.436;2023-04-24T02:37:47;14.81;63.95
77592;DHT22;66891;46.884;17.436;2023-04-24T02:40:14;14.80;63.72
77592;DHT22;66891;46.884;17.436;2023-04-24T02:42:41;14.81;63.44
77592;DHT22;66891;46.884;17.436;2023-04-24T02:45:09;14.85;63.85
77592;DHT22;66891;46.884;17.436;2023-04-24T02:47:37;14.78;63.86
77592;DHT22;66891;46.884;17.436;2023-04-24T02:50:07;14.71;63.98
77592;DHT22;66891;46.884;17.436;2023-04-24T02:52:34;14.71;64.29
77592;DHT22;66891;46.884;17.436;2023-04-24T02:55:02;14.60;64.84
77592;DHT22;66891;46.884;17.436;2023-04-24T02:57:29;14.59;64.77
77592;DHT22;66891;46.884;17.436;2023-04-24T02:59:56;14.61;64.53
77592;DHT22;66891;46.884;17.436;2023-04-24T03:02:24;14.68;63.75
77592;DHT22;66891;46.884;17.436;2023-04-24T03:04:51;14.71;63.27
77592;DHT22;66891;46.884;17.436;2023-04-24T03:07:20;14.74;63.30
77592;DHT22;66891;46.884;17.436;2023-04-24T03:09:48;14.67;63.42
77592;DHT22;66891;46.884;17.436;2023-04-24T03:12:15;14.77;64.35
77592;DHT22;66891;46.884;17.436;2023-04-24T03:14:44;14.81;63.32
77592;DHT22;66891;46.884;17.436;2023-04-24T03:17:12;14.81;64.36
77592;DHT22;66891;46.884;17.436;2023-04-24T03:19:43;14.77;64.70
77592;DHT22;66891;46.884;17.436;2023-04-24T03:22:12;14.92;63.34
77592;DHT22;66891;46.884;17.436;2023-04-24T03:24:40;14.89;62.99
77592;DHT22;66891;46.884;17.436;2023-04-24T03:27:08;14.91;62.90
77592;DHT22;66891;46.884;17.436;2023-04-24T03:29:35;15.01;62.90
77592;DHT22;66891;46.884;17.436;2023-04-24T03:32:02;14.92;63.51
77592;DHT22;66891;46.884;17.436;2023-04-24T03:34:29;14.88;64.04
77592;DHT22;66891;46.884;17.436;2023-04-24T03:36:57;14.94;63.00
77592;DHT22;66891;46.884;17.436;2023-04-24T03:39:24;14.99;62.08
77592;DHT22;66891;46.884;17.436;2023-04-24T03:41:53;14.99;61.91
77592;DHT22;66891;46.884;17.436;2023-04-24T03:44:20;15.05;61.27
77592;DHT22;66891;46.884;17.436;2023-04-24T03:46:48;15.05;61.50
77592;DHT22;66891;46.884;17.436;2023-04-24T03:49:15;14.99;61.12
77592;DHT22;66891;46.884;17.436;2023-04-24T03:51:42;14.98;61.37
77592;DHT22;66891;46.884;17.436;2023-04-24T03:54:10;14.91;62.28
77592;DHT22;66891;46.884;17.436;2023-04-24T03:56:37;14.98;62.09
77592;DHT22;66891;46.884;17.436;2023-04-24T03:59:06;14.95;62.82
77592;DHT22;66891;46.884;17.436;2023-04-24T04:01:33;14.92;62.17
77592;DHT22;66891;46.884;17.436;2023-04-24T04:04:03;14.97;61.98
77592;DHT22;66891;46.884;17.436;2023-04-24T04:06:31;14.98;62.03
77592;DHT22;66891;46.884;17.436;2023-04-24T04:08:59;14.97;62.71
77592;DHT22;66891;46.884;17.436;2023-04-24T04:11:26;14.97;62.13
77592;DHT22;66891;46.884;17.436;2023-04-24T04:13:53;14.95;62.81
77592;DHT22;66891;46.884;17.436;2023-04-24T04:16:23;14.91;63.40
77592;DHT22;66891;46.884;17.436;2023-04-24T04:18:51;14.97;62.09
77592;DHT22;66891;46.884;17.436;2023-04-24T04:21:18;14.99;61.42
77592;DHT22;66891;46.884;17.436;2023-04-24T04:23:46;15.01;61.93
77592;DHT22;66891;46.884;17.436;2023-04-24T04:26:13;14.95;61.65
77592;DHT22;66891;46.884;17.436;2023-04-24T04:28:41;14.89;61.94
77592;DHT22;66891;46.884;17.436;2023-04-24T04:31:08;14.97;64.02
77592;DHT22;66891;46.884;17.436;2023-04-24T04:33:37;14.81;65.34
77592;DHT22;66891;46.884;17.436;2023-04-24T04:36:06;14.70;66.45
77592;DHT22;66891;46.884;17.436;2023-04-24T04:38:33;14.89;66.98
77592;DHT22;66891;46.884;17.436;2023-04-24T04:41:02;14.92;66.02
77592;DHT22;66891;46.884;17.436;2023-04-24T04:43:29;14.68;66.63
77592;DHT22;66891;46.884;17.436;2023-04-24T04:45:58;14.63;67.47
77592;DHT22;66891;46.884;17.436;2023-04-24T04:48:25;14.87;67.52
77592;DHT22;66891;46.884;17.436;2023-04-24T04:50:54;14.83;66.20
77592;DHT22;66891;46.884;17.436;2023-04-24T04:53:21;15.01;64.26
77592;DHT22;66891;46.884;17.436;2023-04-24T04:55:49;15.15;64.34
77592;DHT22;66891;46.884;17.436;2023-04-24T04:58:16;15.26;63.03
77592;DHT22;66891;46.884;17.436;2023-04-24T05:00:43;15.25;64.72
77592;DHT22;66891;46.884;17.436;2023-04-24T05:03:11;15.34;62.75
77592;DHT22;66891;46.884;17.436;2023-04-24T05:05:47;15.49;62.19
77592;DHT22;66891;46.884;17.436;2023-04-24T05:08:16;15.38;63.02
77592;DHT22;66891;46.884;17.436;2023-04-24T05:10:53;15.49;61.72
77592;DHT22;66891;46.884;17.436;2023-04-24T05:13:21;15.43;61.26
77592;DHT22;66891;46.884;17.436;2023-04-24T05:16:04;15.53;61.47
77592;DHT22;66891;46.884;17.436;2023-04-24T05:18:32;15.47;63.10
77592;DHT22;66891;46.884;17.436;2023-04-24T05:20:59;15.42;63.19
77592;DHT22;66891;46.884;17.436;2023-04-24T05:23:28;15.36;63.31
77592;DHT22;66891;46.884;17.436;2023-04-24T05:25:56;15.35;64.18
77592;DHT22;66891;46.884;17.436;2023-04-24T05:28:24;15.31;63.58
77592;DHT22;66891;46.884;17.436;2023-04-24T05:30:55;15.42;64.38
77592;DHT22;66891;46.884;17.436;2023-04-24T05:33:23;15.63;63.12
77592;DHT22;66891;46.884;17.436;2023-04-24T05:35:50;15.70;61.88
77592;DHT22;66891;46.884;17.436;2023-04-24T05:38:18;15.53;64.73
77592;DHT22;66891;46.884;17.436;2023-04-24T05:40:48;15.77;63.66
77592;DHT22;66891;46.884;17.436;2023-04-24T05:43:15;15.80;62.75
77592;DHT22;66891;46.884;17.436;2023-04-24T05:45:48;16.01;62.91
77592;DHT22;66891;46.884;17.436;2023-04-24T05:48:16;16.00;62.51
77592;DHT22;66891;46.884;17.436;2023-04-24T05:50:43;16.22;63.32
77592;DHT22;66891;46.884;17.436;2023-04-24T05:53:12;16.14;61.75
77592;DHT22;66891;46.884;17.436;2023-04-24T05:55:43;16.31;61.95
77592;DHT22;66891;46.884;17.436;2023-04-24T05:58:12;17.08;60.72
77592;DHT22;66891;46.884;17.436;2023-04-24T06:00:40;16.79;61.51
77592;DHT22;66891;46.884;17.436;2023-04-24T06:03:09;16.99;60.34
77592;DHT22;66891;46.884;17.436;2023-04-24T06:05:37;17.21;61.04
77592;DHT22;66891;46.884;17.436;2023-04-24T06:08:05;17.93;58.55
77592;DHT22;66891;46.884;17.436;2023-04-24T06:10:33;16.81;59.44
77592;DHT22;66891;46.884;17.436;2023-04-24T06:13:01;16.39;61.19
77592;DHT22;66891;46.884;17.436;2023-04-24T06:15:30;16.22;62.46
77592;DHT22;66891;46.884;17.436;2023-04-24T06:18:01;16.25;62.15
77592;DHT22;66891;46.884;17.436;2023-04-24T06:20:28;16.05;63.22
77592;DHT22;66891;46.884;17.436;2023-04-24T06:22:55;16.11;63.65
77592;DHT22;66891;46.884;17.436;2023-04-24T06:26:38;16.24;62.56
77592;DHT22;66891;46.884;17.436;2023-04-24T06:29:36;16.35;64.93
77592;DHT22;66891;46.884;17.436;2023-04-24T06:39:33;16.42;61.73
77592;DHT22;66891;46.884;17.436;2023-04-24T06:42:01;16.70;60.51
77592;DHT22;66891;46.884;17.436;2023-04-24T06:44:32;16.76;62.01
77592;DHT22;66891;46.884;17.436;2023-04-24T06:47:01;16.60;62.51
77592;DHT22;66891;46.884;17.436;2023-04-24T06:49:29;16.60;61.50
77592;DHT22;66891;46.884;17.436;2023-04-24T06:51:58;16.70;60.42
77592;DHT22;66891;46.884;17.436;2023-04-24T06:54:26;16.38;61.59
77592;DHT22;66891;46.884;17.436;2023-04-24T06:56:57;16.55;62.30
77592;DHT22;66891;46.884;17.436;2023-04-24T06:59:24;16.60;62.69
77592;DHT22;66891;46.884;17.436;2023-04-24T07:01:52;16.52;62.46
77592;DHT22;66891;46.884;17.436;2023-04-24T07:04:21;16.51;61.65
77592;DHT22;66891;46.884;17.436;2023-04-24T07:06:49;16.39;62.70
77592;DHT22;66891;46.884;17.436;2023-04-24T07:09:18;16.44;63.63
77592;DHT22;66891;46.884;17.436;2023-04-24T07:11:46;16.36;61.08
77592;DHT22;66891;46.884;17.436;2023-04-24T07:14:14;16.35;61.94
77592;DHT22;66891;46.884;17.436;2023-04-24T07:16:42;16.41;63.93
77592;DHT22;66891;46.884;17.436;2023-04-24T07:19:10;16.32;62.30
77592;DHT22;66891;46.884;17.436;2023-04-24T07:21:37;16.42;61.24
77592;DHT22;66891;46.884;17.436;2023-04-24T07:24:05;16.14;62.79
77592;DHT22;66891;46.884;17.436;2023-04-24T07:26:37;16.05;63.33
77592;DHT22;66891;46.884;17.436;2023-04-24T07:29:05;16.04;63.09
77592;DHT22;66891;46.884;17.436;2023-04-24T07:31:34;16.04;62.45
77592;DHT22;66891;46.884;17.436;2023-04-24T07:34:02;16.26;61.95
77592;DHT22;66891;46.884;17.436;2023-04-24T07:36:29;15.96;65.02
77592;DHT22;66891;46.884;17.436;2023-04-24T07:38:57;16.18;63.05
77592;DHT22;66891;46.884;17.436;2023-04-24T07:41:24;16.41;62.34
77592;DHT22;66891;46.884;17.436;2023-04-24T07:43:52;16.51;62.15
77592;DHT22;66891;46.884;17.436;2023-04-24T07:46:20;16.79;61.53
77592;DHT22;66891;46.884;17.436;2023-04-24T07:48:50;16.87;60.23
77592;DHT22;66891;46.884;17.436;2023-04-24T07:51:35;17.06;61.25
77592;DHT22;66891;46.884;17.436;2023-04-24T07:54:05;17.14;61.07
77592;DHT22;66891;46.884;17.436;2023-04-24T07:56:35;17.46;60.61
77592;DHT22;66891;46.884;17.436;2023-04-24T07:59:06;17.69;57.80
77592;DHT22;66891;46.884;17.436;2023-04-24T08:01:36;17.89;58.71
77592;DHT22;66891;46.884;17.436;2023-04-24T08:04:05;18.06;58.58
77592;DHT22;66891;46.884;17.436;2023-04-24T08:06:34;17.69;58.21
77592;DHT22;66891;46.884;17.436;2023-04-24T08:09:07;17.94;57.59
77592;DHT22;66891;46.884;17.436;2023-04-24T08:11:34;18.01;59.48
77592;DHT22;66891;46.884;17.436;2023-04-24T08:14:02;18.16;59.69
77592;DHT22;66891;46.884;17.436;2023-04-24T08:16:29;18.14;60.05
77592;DHT22;66891;46.884;17.436;2023-04-24T08:18:57;18.23;59.63
77592;DHT22;66891;46.884;17.436;2023-04-24T08:21:26;18.24;60.02
77592;DHT22;66891;46.884;17.436;2023-04-24T08:23:54;18.65;56.96
77592;DHT22;66891;46.884;17.436;2023-04-24T08:26:22;18.45;56.58
77592;DHT22;66891;46.884;17.436;2023-04-24T08:28:49;18.62;55.50
77592;DHT22;66891;46.884;17.436;2023-04-24T08:31:17;18.75;54.73
77592;DHT22;66891;46.884;17.436;2023-04-24T08:33:44;18.91;56.83
77592;DHT22;66891;46.884;17.436;2023-04-24T08:36:12;18.82;55.28
77592;DHT22;66891;46.884;17.436;2023-04-24T08:38:49;18.89;55.14
77592;DHT22;66891;46.884;17.436;2023-04-24T08:41:21;19.17;53.42
77592;DHT22;66891;46.884;17.436;2023-04-24T08:44:00;19.22;55.59
77592;DHT22;66891;46.884;17.436;2023-04-24T08:46:29;19.35;54.29
77592;DHT22;66891;46.884;17.436;2023-04-24T08:48:58;19.31;53.87
77592;DHT22;66891;46.884;17.436;2023-04-24T08:51:26;19.53;53.77
77592;DHT22;66891;46.884;17.436;2023-04-24T08:53:57;19.53;54.10
77592;DHT22;66891;46.884;17.436;2023-04-24T08:56:25;19.43;53.30
77592;DHT22;66891;46.884;17.436;2023-04-24T08:58:54;19.74;53.96
77592;DHT22;66891;46.884;17.436;2023-04-24T09:01:24;19.44;53.80
77592;DHT22;66891;46.884;17.436;2023-04-24T09:03:53;19.12;54.50
77592;DHT22;66891;46.884;17.436;2023-04-24T09:06:23;19.00;56.17
77592;DHT22;66891;46.884;17.436;2023-04-24T09:08:52;18.73;56.80
77592;DHT22;66891;46.884;17.436;2023-04-24T09:11:22;18.69;59.26
77592;DHT22;66891;46.884;17.436;2023-04-24T09:13:56;18.76;58.05
77592;DHT22;66891;46.884;17.436;2023-04-24T09:16:24;18.61;58.11
77592;DHT22;66891;46.884;17.436;2023-04-24T09:18:53;18.69;57.55
77592;DHT22;66891;46.884;17.436;2023-04-24T09:21:21;18.68;57.31
77592;DHT22;66891;46.884;17.436;2023-04-24T09:23:57;18.71;56.50
77592;DHT22;66891;46.884;17.436;2023-04-24T09:26:29;18.55;56.96
77592;DHT22;66891;46.884;17.436;2023-04-24T09:28:58;18.61;57.91
77592;DHT22;66891;46.884;17.436;2023-04-24T09:31:28;18.38;57.89
77592;DHT22;66891;46.884;17.436;2023-04-24T09:33:56;18.41;59.15
77592;DHT22;66891;46.884;17.436;2023-04-24T09:36:28;18.49;58.22
77592;DHT22;66891;46.884;17.436;2023-04-24T09:38:58;18.14;58.61
77592;DHT22;66891;46.884;17.436;2023-04-24T09:41:28;17.89;57.89
77592;DHT22;66891;46.884;17.436;2023-04-24T09:43:57;17.89;59.04
77592;DHT22;66891;46.884;17.436;2023-04-24T09:46:32;18.09;58.18
77592;DHT22;66891;46.884;17.436;2023-04-24T09:49:08;17.93;58.75
77592;DHT22;66891;46.884;17.436;2023-04-24T09:51:38;17.78;59.04
77592;DHT22;66891;46.884;17.436;2023-04-24T09:54:14;17.71;59.32
77592;DHT22;66891;46.884;17.436;2023-04-24T09:56:44;17.72;59.66
77592;DHT22;66891;46.884;17.436;2023-04-24T09:59:13;17.69;60.52
77592;DHT22;66891;46.884;17.436;2023-04-24T10:01:41;17.66;60.41
77592;DHT22;66891;46.884;17.436;2023-04-24T10:04:55;17.76;60.44
77592;DHT22;66891;46.884;17.436;2023-04-24T10:07:27;17.99;58.23
77592;DHT22;66891;46.884;17.436;2023-04-24T10:09:56;18.17;58.27
77592;DHT22;66891;46.884;17.436;2023-04-24T10:12:25;18.28;58.01
77592;DHT22;66891;46.884;17.436;2023-04-24T10:14:54;18.30;58.14
77592;DHT22;66891;46.884;17.436;2023-04-24T10:17:22;18.28;57.56
77592;DHT22;66891;46.884;17.436;2023-04-24T10:19:51;18.58;57.16
77592;DHT22;66891;46.884;17.436;2023-04-24T10:22:19;18.71;57.32
77592;DHT22;66891;46.884;17.436;2023-04-24T10:24:47;18.72;56.24
77592;DHT22;66891;46.884;17.436;2023-04-24T10:27:16;18.54;57.87
77592;DHT22;66891;46.884;17.436;2023-04-24T10:29:45;18.59;57.40
77592;DHT22;66891;46.884;17.436;2023-04-24T10:32:14;18.61;57.57
77592;DHT22;66891;46.884;17.436;2023-04-24T10:34:45;18.61;56.46
77592;DHT22;66891;46.884;17.436;2023-04-24T10:37:13;18.45;56.95
77592;DHT22;66891;46.884;17.436;2023-04-24T10:39:51;18.88;58.07
77592;DHT22;66891;46.884;17.436;2023-04-24T10:42:27;18.84;57.11
77592;DHT22;66891;46.884;17.436;2023-04-24T10:44:55;18.99;57.45
77592;DHT22;66891;46.884;17.436;2023-04-24T10:47:25;19.07;56.85
77592;DHT22;66891;46.884;17.436;2023-04-24T10:49:52;19.09;57.16
77592;DHT22;66891;46.884;17.436;2023-04-24T10:52:20;19.31;58.94
77592;DHT22;66891;46.884;17.436;2023-04-24T10:54:48;19.44;57.50
77592;DHT22;66891;46.884;17.436;2023-04-24T10:57:26;19.64;57.20
77592;DHT22;66891;46.884;17.436;2023-04-24T11:00:18;19.51;58.76
77592;DHT22;66891;46.884;17.436;2023-04-24T11:02:47;19.23;58.23
77592;DHT22;66891;46.884;17.436;2023-04-24T11:05:20;19.40;56.11
77592;DHT22;66891;46.884;17.436;2023-04-24T11:08:10;19.09;57.18
77592;DHT22;66891;46.884;17.436;2023-04-24T11:10:43;19.03;56.83
77592;DHT22;66891;46.884;17.436;2023-04-24T11:13:14;18.79;58.22
77592;DHT22;66891;46.884;17.436;2023-04-24T11:16:14;18.55;58.29
77592;DHT22;66891;46.884;17.436;2023-04-24T11:18:43;18.51;57.09
77592;DHT22;66891;46.884;17.436;2023-04-24T11:21:18;18.44;57.84
77592;DHT22;66891;46.884;17.436;2023-04-24T11:23:46;18.28;57.87
77592;DHT22;66891;46.884;17.436;2023-04-24T11:26:18;18.20;59.15
77592;DHT22;66891;46.884;17.436;2023-04-24T11:28:47;18.09;61.31
77592;DHT22;66891;46.884;17.436;2023-04-24T11:31:36;17.86;62.61
77592;DHT22;66891;46.884;17.436;2023-04-24T11:34:09;17.92;64.28
77592;DHT22;66891;46.884;17.436;2023-04-24T11:36:37;17.89;63.16
77592;DHT22;66891;46.884;17.436;2023-04-24T11:39:05;17.72;64.74
77592;DHT22;66891;46.884;17.436;2023-04-24T11:41:33;17.71;65.17
77592;DHT22;66891;46.884;17.436;2023-04-24T11:44:01;17.58;66.11
77592;DHT22;66891;46.884;17.436;2023-04-24T11:46:30;17.69;66.45
77592;DHT22;66891;46.884;17.436;2023-04-24T11:49:00;17.92;65.14
77592;DHT22;66891;46.884;17.436;2023-04-24T11:51:28;18.17;65.76
77592;DHT22;66891;46.884;17.436;2023-04-24T11:54:07;18.61;62.28
77592;DHT22;66891;46.884;17.436;2023-04-24T11:56:37;18.28;64.54
77592;DHT22;66891;46.884;17.436;2023-04-24T11:59:07;18.34;61.45
77592;DHT22;66891;46.884;17.436;2023-04-24T12:01:43;18.26;61.66
77592;DHT22;66891;46.884;17.436;2023-04-24T12:04:13;18.11;63.38
77592;DHT22;66891;46.884;17.436;2023-04-24T12:06:59;18.13;63.08
77592;DHT22;66891;46.884;17.436;2023-04-24T12:09:28;17.94;65.05
77592;DHT22;66891;46.884;17.436;2023-04-24T12:11:56;17.68;66.20
77592;DHT22;66891;46.884;17.436;2023-04-24T12:14:24;17.72;65.81
77592;DHT22;66891;46.884;17.436;2023-04-24T12:16:51;17.89;66.12
77592;DHT22;66891;46.884;17.436;2023-04-24T12:19:22;17.89;65.21
77592;DHT22;66891;46.884;17.436;2023-04-24T12:22:00;17.78;64.54
77592;DHT22;66891;46.884;17.436;2023-04-24T12:24:27;17.78;66.15
77592;DHT22;66891;46.884;17.436;2023-04-24T12:26:55;17.46;68.64
77592;DHT22;66891;46.884;17.436;2023-04-24T12:29:23;17.52;66.74
77592;DHT22;66891;46.884;17.436;2023-04-24T12:31:51;17.25;67.29
77592;DHT22;66891;46.884;17.436;2023-04-24T12:34:19;17.15;67.74
77592;DHT22;66891;46.884;17.436;2023-04-24T12:36:49;17.10;67.96
77592;DHT22;66891;46.884;17.436;2023-04-24T12:39:16;17.07;67.62
77592;DHT22;66891;46.884;17.436;2023-04-24T12:41:54;17.02;68.53
77592;DHT22;66891;46.884;17.436;2023-04-24T12:44:30;17.04;68.90
77592;DHT22;66891;46.884;17.436;2023-04-24T12:46:59;17.00;68.08
77592;DHT22;66891;46.884;17.436;2023-04-24T12:49:27;16.76;69.80
77592;DHT22;66891;46.884;17.436;2023-04-24T12:51:56;16.99;65.36
77592;DHT22;66891;46.884;17.436;2023-04-24T12:54:23;16.84;66.78
77592;DHT22;66891;46.884;17.436;2023-04-24T12:56:51;16.49;68.85
77592;DHT22;66891;46.884;17.436;2023-04-24T12:59:18;16.33;70.96
77592;DHT22;66891;46.884;17.436;2023-04-24T13:01:45;16.38;72.53
77592;DHT22;66891;46.884;17.436;2023-04-24T13:04:13;15.96;75.31
77592;DHT22;66891;46.884;17.436;2023-04-24T13:06:41;15.90;76.89
77592;DHT22;66891;46.884;17.436;2023-04-24T13:09:10;15.73;78.39
77592;DHT22;66891;46.884;17.436;2023-04-24T13:11:37;15.50;78.90
77592;DHT22;66891;46.884;17.436;2023-04-24T13:14:05;15.56;78.61
77592;DHT22;66891;46.884;17.436;2023-04-24T13:16:32;15.57;78.11
77592;DHT22;66891;46.884;17.436;2023-04-24T13:19:00;15.69;78.58
77592;DHT22;66891;46.884;17.436;2023-04-24T13:21:29;15.60;78.69
77592;DHT22;66891;46.884;17.436;2023-04-24T13:23:57;15.36;77.55
77592;DHT22;66891;46.884;17.436;2023-04-24T13:26:26;15.19;77.41
77592;DHT22;66891;46.884;17.436;2023-04-24T13:28:54;15.32;76.87
77592;DHT22;66891;46.884;17.436;2023-04-24T13:31:21;15.31;77.58
77592;DHT22;66891;46.884;17.436;2023-04-24T13:33:49;15.32;77.86
77592;DHT22;66891;46.884;17.436;2023-04-24T13:36:16;15.34;78.48
77592;DHT22;66891;46.884;17.436;2023-04-24T13:38:44;15.22;78.90
77592;DHT22;66891;46.884;17.436;2023-04-24T13:41:15;15.32;79.12
77592;DHT22;66891;46.884;17.436;2023-04-24T13:43:58;15.31;79.21
77592;DHT22;66891;46.884;17.436;2023-04-24T13:46:26;15.07;80.16
77592;DHT22;66891;46.884;17.436;2023-04-24T13:48:53;15.05;80.20
77592;DHT22;66891;46.884;17.436;2023-04-24T13:51:21;14.88;81.15
77592;DHT22;66891;46.884;17.436;2023-04-24T13:53:48;14.84;81.55
77592;DHT22;66891;46.884;17.436;2023-04-24T13:56:15;14.67;82.01
77592;DHT22;66891;46.884;17.436;2023-04-24T13:58:43;14.57;81.88
77592;DHT22;66891;46.884;17.436;2023-04-24T14:01:11;14.47;81.73
77592;DHT22;66891;46.884;17.436;2023-04-24T14:03:39;13.82;78.04
77592;DHT22;66891;46.884;17.436;2023-04-24T14:06:07;13.75;78.15
77592;DHT22;66891;46.884;17.436;2023-04-24T14:08:34;13.75;78.92
77592;DHT22;66891;46.884;17.436;2023-04-24T14:11:02;13.70;79.64
77592;DHT22;66891;46.884;17.436;2023-04-24T14:13:30;13.75;80.28
77592;DHT22;66891;46.884;17.436;2023-04-24T14:15:58;13.64;79.29
77592;DHT22;66891;46.884;17.436;2023-04-24T14:18:26;13.51;79.80
77592;DHT22;66891;46.884;17.436;2023-04-24T14:20:54;13.47;79.63
77592;DHT22;66891;46.884;17.436;2023-04-24T14:23:21;13.53;79.80
77592;DHT22;66891;46.884;17.436;2023-04-24T14:25:49;13.30;79.54
77592;DHT22;66891;46.884;17.436;2023-04-24T14:28:19;13.23;80.40
77592;DHT22;66891;46.884;17.436;2023-04-24T14:30:47;13.22;80.66
77592;DHT22;66891;46.884;17.436;2023-04-24T14:33:14;13.23;81.10
77592;DHT22;66891;46.884;17.436;2023-04-24T14:35:43;13.13;81.15
77592;DHT22;66891;46.884;17.436;2023-04-24T14:38:11;13.28;81.38
77592;DHT22;66891;46.884;17.436;2023-04-24T14:40:38;13.13;82.08
77592;DHT22;66891;46.884;17.436;2023-04-24T14:43:08;13.24;82.51
77592;DHT22;66891;46.884;17.436;2023-04-24T14:45:36;13.27;83.79
77592;DHT22;66891;46.884;17.436;2023-04-24T14:48:06;13.24;83.41
77592;DHT22;66891;46.884;17.436;2023-04-24T14:50:33;13.17;84.28
77592;DHT22;66891;46.884;17.436;2023-04-24T14:53:02;13.09;84.61
77592;DHT22;66891;46.884;17.436;2023-04-24T14:55:31;13.16;85.03
77592;DHT22;66891;46.884;17.436;2023-04-24T14:57:58;13.13;84.15
77592;DHT22;66891;46.884;17.436;2023-04-24T15:00:26;13.00;84.43
77592;DHT22;66891;46.884;17.436;2023-04-24T15:02:53;13.00;84.10
77592;DHT22;66891;46.884;17.436;2023-04-24T15:05:22;13.10;84.95
77592;DHT22;66891;46.884;17.436;2023-04-24T15:07:50;13.16;84.29
77592;DHT22;66891;46.884;17.436;2023-04-24T15:10:19;13.06;84.64
77592;DHT22;66891;46.884;17.436;2023-04-24T15:12:49;13.05;84.66
77592;DHT22;66891;46.884;17.436;2023-04-24T15:15:17;13.05;84.91
77592;DHT22;66891;46.884;17.436;2023-04-24T15:17:44;13.05;85.01
77592;DHT22;66891;46.884;17.436;2023-04-24T15:20:34;13.00;85.51
77592;DHT22;66891;46.884;17.436;2023-04-24T15:23:09;12.87;85.70
77592;DHT22;66891;46.884;17.436;2023-04-24T15:25:38;12.96;86.08
77592;DHT22;66891;46.884;17.436;2023-04-24T15:28:05;12.98;85.66
77592;DHT22;66891;46.884;17.436;2023-04-24T15:30:33;12.93;85.04
77592;DHT22;66891;46.884;17.436;2023-04-24T15:33:26;12.98;85.48
77592;DHT22;66891;46.884;17.436;2023-04-24T15:35:53;12.92;85.29
77592;DHT22;66891;46.884;17.436;2023-04-24T15:38:21;12.88;85.48